createdAt,value
2018-04-04T00:00:35.147Z,9.97
2018-04-04T00:01:35.307Z,9.97
2018-04-04T00:02:35.449Z,9.97
2018-04-04T00:03:35.604Z,9.86
2018-04-04T00:04:35.755Z,9.92
2018-04-04T00:05:35.907Z,9.94
2018-04-04T00:06:36.060Z,9.95
2018-04-04T00:07:36.210Z,9.95
2018-04-04T00:08:36.365Z,9.99
2018-04-04T00:09:36.518Z,9.95
2018-04-04T00:10:36.671Z,10.05
2018-04-04T00:11:36.834Z,9.99
2018-04-04T00:12:37.013Z,10.07
2018-04-04T00:13:37.125Z,9.91
2018-04-04T00:14:37.281Z,9.92
2018-04-04T00:15:37.429Z,9.95
2018-04-04T00:16:37.580Z,9.82
2018-04-04T00:17:37.749Z,9.80
2018-04-04T00:18:37.886Z,9.83
2018-04-04T00:19:38.035Z,9.80
2018-04-04T00:20:38.188Z,9.74
2018-04-04T00:21:38.342Z,9.76
2018-04-04T00:22:38.493Z,9.79
2018-04-04T00:23:38.649Z,9.80
2018-04-04T00:24:38.808Z,9.79
2018-04-04T00:25:38.955Z,9.77
2018-04-04T00:26:39.102Z,9.82
2018-04-04T00:27:39.264Z,9.83
2018-04-04T00:28:39.404Z,9.79
2018-04-04T00:29:39.585Z,9.68
2018-04-04T00:30:39.703Z,9.62
2018-04-04T00:31:39.852Z,9.62
2018-04-04T00:32:40.010Z,9.73
2018-04-04T00:33:40.158Z,9.74
2018-04-04T00:34:40.314Z,9.80
2018-04-04T00:35:40.465Z,9.68
2018-04-04T00:36:40.610Z,9.68
2018-04-04T00:37:40.763Z,9.77
2018-04-04T00:38:40.926Z,9.77
2018-04-04T00:39:41.071Z,9.76
2018-04-04T00:40:41.225Z,9.66
2018-04-04T00:41:41.378Z,9.62
2018-04-04T00:42:41.528Z,9.64
2018-04-04T00:43:41.679Z,9.65
2018-04-04T00:44:41.835Z,9.66
2018-04-04T00:45:41.984Z,9.68
2018-04-04T00:46:42.143Z,9.58
2018-04-04T00:47:42.286Z,9.54
2018-04-04T00:48:42.440Z,9.51
2018-04-04T00:49:42.589Z,9.46
2018-04-04T00:50:42.743Z,9.48
2018-04-04T00:51:42.897Z,9.39
2018-04-04T00:52:43.056Z,9.43
2018-04-04T00:53:43.205Z,9.44
2018-04-04T00:54:43.358Z,9.40
2018-04-04T00:55:43.507Z,9.34
2018-04-04T00:56:43.660Z,9.31
2018-04-04T00:57:43.816Z,9.37
2018-04-04T00:58:43.995Z,9.43
2018-04-04T00:59:44.117Z,9.43
2018-04-04T01:00:44.266Z,9.36
2018-04-04T01:01:44.420Z,9.39
2018-04-04T01:02:44.574Z,9.40
2018-04-04T01:03:44.726Z,9.44
2018-04-04T01:04:44.878Z,9.48
2018-04-04T01:05:45.031Z,9.61
2018-04-04T01:06:45.178Z,9.54
2018-04-04T01:07:45.330Z,9.39
2018-04-04T01:08:45.487Z,9.37
2018-04-04T01:09:45.635Z,9.41
2018-04-04T01:10:45.784Z,9.39
2018-04-04T01:11:45.935Z,9.37
2018-04-04T01:12:46.085Z,9.37
2018-04-04T01:13:46.233Z,9.28
2018-04-04T01:14:46.400Z,9.23
2018-04-04T01:15:46.547Z,9.21
2018-04-04T01:16:46.707Z,9.19
2018-04-04T01:17:46.862Z,9.25
2018-04-04T01:18:47.005Z,9.25
2018-04-04T01:19:47.156Z,9.19
2018-04-04T01:20:47.311Z,9.13
2018-04-04T01:21:47.481Z,9.19
2018-04-04T01:22:47.610Z,9.23
2018-04-04T01:23:47.761Z,9.14
2018-04-04T01:24:47.919Z,9.22
2018-04-04T01:25:48.072Z,9.22
2018-04-04T01:26:48.218Z,9.19
2018-04-04T01:27:48.374Z,9.21
2018-04-04T01:28:48.526Z,9.23
2018-04-04T01:29:48.676Z,9.29
2018-04-04T01:30:48.827Z,9.31
2018-04-04T01:31:48.979Z,9.19
2018-04-04T01:32:49.127Z,9.18
2018-04-04T01:33:49.280Z,9.18
2018-04-04T01:34:49.460Z,9.14
2018-04-04T01:35:49.577Z,9.22
2018-04-04T01:36:49.734Z,9.19
2018-04-04T01:38:50.024Z,9.34
2018-04-04T01:39:50.185Z,9.40
2018-04-04T01:40:50.331Z,9.40
2018-04-04T01:41:50.483Z,9.46
2018-04-04T01:42:50.635Z,9.41
2018-04-04T01:43:50.784Z,9.50
2018-04-04T01:44:50.937Z,9.47
2018-04-04T01:45:51.088Z,9.50
2018-04-04T01:46:51.299Z,9.41
2018-04-04T01:47:51.399Z,9.41
2018-04-04T01:48:51.546Z,9.37
2018-04-04T01:49:51.697Z,9.43
2018-04-04T01:50:51.848Z,9.47
2018-04-04T01:51:52.000Z,9.40
2018-04-04T01:52:52.154Z,9.47
2018-04-04T01:53:52.306Z,9.37
2018-04-04T01:54:52.464Z,9.43
2018-04-04T01:55:52.621Z,9.50
2018-04-04T01:56:52.772Z,9.46
2018-04-04T01:57:52.921Z,9.39
2018-04-04T01:58:53.077Z,9.37
2018-04-04T01:59:53.225Z,9.36
2018-04-04T02:00:53.382Z,9.32
2018-04-04T02:01:53.534Z,9.23
2018-04-04T02:02:53.689Z,9.18
2018-04-04T02:03:53.834Z,9.14
2018-04-04T02:04:53.985Z,9.10
2018-04-04T02:05:54.142Z,9.08
2018-04-04T02:06:54.293Z,9.19
2018-04-04T02:07:54.441Z,9.02
2018-04-04T02:08:54.596Z,8.99
2018-04-04T02:09:54.750Z,8.97
2018-04-04T02:10:54.892Z,9.04
2018-04-04T02:11:55.047Z,9.00
2018-04-04T02:12:55.200Z,8.92
2018-04-04T02:13:55.353Z,8.87
2018-04-04T02:14:55.513Z,8.84
2018-04-04T02:15:55.659Z,8.91
2018-04-04T02:16:55.808Z,8.97
2018-04-04T02:17:55.975Z,8.97
2018-04-04T02:18:56.105Z,8.94
2018-04-04T02:19:56.258Z,8.94
2018-04-04T02:20:56.410Z,8.91
2018-04-04T02:21:56.566Z,8.95
2018-04-04T02:22:56.714Z,8.92
2018-04-04T02:23:56.868Z,8.76
2018-04-04T02:24:57.020Z,8.85
2018-04-04T02:25:57.173Z,9.00
2018-04-04T02:26:57.323Z,8.92
2018-04-04T02:27:57.472Z,8.91
2018-04-04T02:28:57.631Z,8.94
2018-04-04T02:29:57.781Z,9.04
2018-04-04T02:30:57.932Z,9.04
2018-04-04T02:31:58.093Z,9.06
2018-04-04T02:32:58.238Z,8.92
2018-04-04T02:33:58.388Z,8.94
2018-04-04T02:34:58.538Z,8.97
2018-04-04T02:35:58.693Z,8.97
2018-04-04T02:36:58.846Z,9.03
2018-04-04T02:37:58.995Z,9.00
2018-04-04T02:38:59.150Z,9.04
2018-04-04T02:39:59.307Z,9.02
2018-04-04T02:40:59.447Z,8.97
2018-04-04T02:41:59.599Z,8.84
2018-04-04T02:42:59.991Z,8.84
2018-04-04T02:43:59.905Z,8.78
2018-04-04T02:45:00.054Z,8.81
2018-04-04T02:46:00.219Z,8.81
2018-04-04T02:47:00.351Z,8.79
2018-04-04T02:48:00.510Z,8.82
2018-04-04T02:49:00.658Z,8.84
2018-04-04T02:50:00.813Z,8.79
2018-04-04T02:51:00.968Z,8.81
2018-04-04T02:52:01.114Z,8.66
2018-04-04T02:53:01.268Z,8.71
2018-04-04T02:54:01.417Z,8.85
2018-04-04T02:55:01.572Z,8.87
2018-04-04T02:56:01.720Z,8.73
2018-04-04T02:57:01.871Z,8.74
2018-04-04T02:58:02.022Z,8.61
2018-04-04T02:59:02.175Z,8.56
2018-04-04T03:00:02.327Z,8.46
2018-04-04T03:01:02.481Z,8.45
2018-04-04T03:02:02.640Z,8.48
2018-04-04T03:03:02.783Z,8.55
2018-04-04T03:04:02.934Z,8.56
2018-04-04T03:05:03.088Z,8.56
2018-04-04T03:06:03.238Z,8.44
2018-04-04T03:07:03.391Z,8.45
2018-04-04T03:08:03.544Z,8.42
2018-04-04T03:09:03.694Z,8.55
2018-04-04T03:10:03.851Z,8.69
2018-04-04T03:11:03.992Z,8.69
2018-04-04T03:12:04.142Z,8.73
2018-04-04T03:13:04.295Z,8.71
2018-04-04T03:14:04.447Z,8.64
2018-04-04T03:15:04.597Z,8.56
2018-04-04T03:16:04.747Z,8.55
2018-04-04T03:17:04.905Z,8.70
2018-04-04T03:18:05.063Z,8.56
2018-04-04T03:19:05.207Z,8.64
2018-04-04T03:20:05.360Z,8.61
2018-04-04T03:21:05.513Z,8.52
2018-04-04T03:22:05.663Z,8.45
2018-04-04T03:23:05.817Z,8.38
2018-04-04T03:24:05.965Z,8.53
2018-04-04T03:25:06.117Z,8.52
2018-04-04T03:26:06.279Z,8.49
2018-04-04T03:27:06.426Z,8.44
2018-04-04T03:28:06.581Z,8.45
2018-04-04T03:29:06.734Z,8.49
2018-04-04T03:30:06.892Z,8.52
2018-04-04T03:31:07.043Z,8.52
2018-04-04T03:32:07.187Z,8.45
2018-04-04T03:33:07.338Z,8.46
2018-04-04T03:34:07.494Z,8.56
2018-04-04T03:35:07.642Z,8.46
2018-04-04T03:36:07.803Z,8.56
2018-04-04T03:37:07.946Z,8.48
2018-04-04T03:38:08.097Z,8.48
2018-04-04T03:39:08.253Z,8.37
2018-04-04T03:40:08.399Z,8.28
2018-04-04T03:41:08.559Z,8.19
2018-04-04T03:42:08.704Z,8.12
2018-04-04T03:43:08.852Z,8.15
2018-04-04T03:44:09.059Z,8.15
2018-04-04T03:45:09.152Z,8.03
2018-04-04T03:46:09.302Z,8.15
2018-04-04T03:47:09.458Z,8.09
2018-04-04T03:48:09.607Z,8.12
2018-04-04T03:49:09.757Z,8.06
2018-04-04T03:50:09.911Z,8.09
2018-04-04T03:51:10.058Z,8.01
2018-04-04T03:52:10.211Z,7.77
2018-04-04T03:53:10.366Z,7.91
2018-04-04T03:54:10.514Z,7.83
2018-04-04T03:55:10.669Z,7.73
2018-04-04T03:56:10.820Z,7.79
2018-04-04T03:57:10.965Z,7.82
2018-04-04T03:58:11.118Z,7.87
2018-04-04T03:59:11.268Z,8.08
2018-04-04T04:00:11.435Z,8.13
2018-04-04T04:01:11.576Z,8.20
2018-04-04T04:02:11.726Z,8.13
2018-04-04T04:03:11.880Z,8.31
2018-04-04T04:04:12.029Z,8.41
2018-04-04T04:05:12.180Z,8.53
2018-04-04T04:06:12.332Z,8.76
2018-04-04T04:07:12.477Z,8.81
2018-04-04T04:08:12.634Z,8.78
2018-04-04T04:09:12.780Z,8.82
2018-04-04T04:10:12.943Z,8.78
2018-04-04T04:11:13.091Z,8.81
2018-04-04T04:12:13.249Z,8.79
2018-04-04T04:13:13.398Z,8.88
2018-04-04T04:14:13.551Z,8.82
2018-04-04T04:15:13.698Z,8.81
2018-04-04T04:16:13.847Z,8.81
2018-04-04T04:17:14.003Z,8.56
2018-04-04T04:18:14.158Z,8.48
2018-04-04T04:19:14.301Z,8.53
2018-04-04T04:20:14.518Z,8.61
2018-04-04T04:21:14.605Z,8.48
2018-04-04T04:22:14.757Z,8.69
2018-04-04T04:23:14.907Z,9.11
2018-04-04T04:24:15.058Z,9.32
2018-04-04T04:25:15.208Z,9.31
2018-04-04T04:26:15.355Z,9.56
2018-04-04T04:27:15.503Z,9.82
2018-04-04T04:28:15.656Z,10.02
2018-04-04T04:29:15.805Z,10.01
2018-04-04T04:30:15.957Z,10.07
2018-04-04T04:31:16.112Z,10.02
2018-04-04T04:32:16.257Z,10.15
2018-04-04T04:33:16.409Z,10.31
2018-04-04T04:34:16.564Z,10.34
2018-04-04T04:35:16.713Z,10.17
2018-04-04T04:36:16.864Z,10.09
2018-04-04T04:37:17.014Z,9.79
2018-04-04T04:38:17.174Z,9.44
2018-04-04T04:39:17.323Z,9.26
2018-04-04T04:40:17.481Z,9.21
2018-04-04T04:41:17.626Z,9.06
2018-04-04T04:42:17.776Z,8.88
2018-04-04T04:43:17.931Z,8.87
2018-04-04T04:44:18.081Z,8.76
2018-04-04T04:45:18.245Z,8.67
2018-04-04T04:46:18.385Z,8.67
2018-04-04T04:47:18.536Z,8.64
2018-04-04T04:48:18.696Z,8.60
2018-04-04T04:49:18.841Z,8.44
2018-04-04T04:50:18.995Z,8.48
2018-04-04T04:51:19.142Z,8.42
2018-04-04T04:52:19.294Z,8.19
2018-04-04T04:53:19.450Z,8.16
2018-04-04T04:54:19.599Z,8.13
2018-04-04T04:55:19.754Z,8.23
2018-04-04T04:56:19.908Z,8.26
2018-04-04T04:57:20.056Z,8.23
2018-04-04T04:58:20.211Z,8.27
2018-04-04T04:59:20.364Z,8.23
2018-04-04T05:00:20.511Z,8.12
2018-04-04T05:01:20.666Z,8.10
2018-04-04T05:02:20.811Z,8.09
2018-04-04T05:03:20.961Z,8.08
2018-04-04T05:04:21.119Z,8.00
2018-04-04T05:05:21.266Z,8.03
2018-04-04T05:06:21.415Z,7.98
2018-04-04T05:07:21.571Z,8.05
2018-04-04T05:08:21.725Z,8.09
2018-04-04T05:09:21.872Z,8.15
2018-04-04T05:10:22.025Z,8.20
2018-04-04T05:11:22.183Z,8.45
2018-04-04T05:12:22.332Z,8.63
2018-04-04T05:13:22.490Z,8.76
2018-04-04T05:14:22.642Z,8.79
2018-04-04T05:15:22.775Z,8.88
2018-04-04T05:16:22.972Z,8.81
2018-04-04T05:17:23.145Z,8.76
2018-04-04T05:18:23.300Z,8.84
2018-04-04T05:19:23.455Z,8.74
2018-04-04T05:20:23.643Z,8.74
2018-04-04T05:21:23.747Z,8.63
2018-04-04T05:22:23.896Z,8.49
2018-04-04T05:23:24.052Z,8.51
2018-04-04T05:24:24.208Z,8.34
2018-04-04T05:25:24.353Z,8.31
2018-04-04T05:26:24.501Z,8.16
2018-04-04T05:27:24.655Z,8.19
2018-04-04T05:28:24.811Z,8.20
2018-04-04T05:29:24.957Z,8.13
2018-04-04T05:30:25.106Z,8.15
2018-04-04T05:31:25.258Z,8.15
2018-04-04T05:32:25.406Z,8.18
2018-04-04T05:33:25.558Z,8.16
2018-04-04T05:34:25.721Z,8.10
2018-04-04T05:35:25.860Z,8.09
2018-04-04T05:36:26.004Z,8.13
2018-04-04T05:37:26.160Z,8.20
2018-04-04T05:38:26.310Z,8.12
2018-04-04T05:39:26.461Z,8.28
2018-04-04T05:40:26.616Z,8.23
2018-04-04T05:41:26.764Z,8.31
2018-04-04T05:42:26.912Z,8.36
2018-04-04T05:43:27.063Z,8.46
2018-04-04T05:44:27.214Z,8.45
2018-04-04T05:45:27.368Z,8.52
2018-04-04T05:46:27.520Z,8.53
2018-04-04T05:47:27.669Z,8.49
2018-04-04T05:48:27.820Z,8.51
2018-04-04T05:49:27.967Z,8.48
2018-04-04T05:50:28.123Z,8.53
2018-04-04T05:51:28.277Z,9.26
2018-04-04T05:52:28.417Z,11.10
2018-04-04T05:53:28.570Z,11.95
2018-04-04T05:54:28.717Z,11.99
2018-04-04T05:55:28.869Z,11.81
2018-04-04T05:56:29.019Z,11.50
2018-04-04T05:57:29.168Z,11.30
2018-04-04T05:58:29.350Z,11.02
2018-04-04T05:59:29.473Z,10.76
2018-04-04T06:00:29.625Z,10.67
2018-04-04T06:01:29.778Z,10.56
2018-04-04T06:02:29.938Z,10.42
2018-04-04T06:03:30.089Z,10.37
2018-04-04T06:04:30.239Z,10.20
2018-04-04T06:05:30.395Z,10.17
2018-04-04T06:06:30.543Z,10.02
2018-04-04T06:07:30.706Z,9.87
2018-04-04T06:08:30.850Z,9.82
2018-04-04T06:09:31.007Z,9.69
2018-04-04T06:10:31.166Z,9.64
2018-04-04T06:11:31.316Z,9.51
2018-04-04T06:12:31.466Z,9.50
2018-04-04T06:13:31.618Z,9.47
2018-04-04T06:14:31.771Z,9.32
2018-04-04T06:15:31.922Z,9.39
2018-04-04T06:16:32.075Z,9.31
2018-04-04T06:17:32.226Z,9.31
2018-04-04T06:18:32.379Z,9.32
2018-04-04T06:19:32.535Z,9.41
2018-04-04T06:20:32.687Z,9.46
2018-04-04T06:21:32.862Z,9.55
2018-04-04T06:22:33.013Z,9.55
2018-04-04T06:23:33.157Z,9.66
2018-04-04T06:24:33.314Z,9.65
2018-04-04T06:25:33.707Z,9.69
2018-04-04T06:26:33.620Z,9.91
2018-04-04T06:27:33.778Z,9.89
2018-04-04T06:29:34.072Z,9.99
2018-04-04T06:30:34.228Z,10.13
2018-04-04T06:31:34.403Z,10.22
2018-04-04T06:32:34.532Z,10.30
2018-04-04T06:33:34.687Z,10.40
2018-04-04T06:34:34.840Z,10.44
2018-04-04T06:35:34.998Z,10.44
2018-04-04T06:36:35.147Z,10.53
2018-04-04T06:37:35.303Z,10.51
2018-04-04T06:38:35.458Z,10.51
2018-04-04T06:39:35.608Z,10.61
2018-04-04T06:40:35.762Z,10.60
2018-04-04T06:41:35.913Z,10.59
2018-04-04T06:42:36.075Z,10.61
2018-04-04T06:43:36.209Z,10.78
2018-04-04T06:44:36.430Z,10.86
2018-04-04T06:45:36.518Z,10.93
2018-04-04T06:46:36.671Z,10.97
2018-04-04T06:47:36.814Z,11.10
2018-04-04T06:48:36.966Z,11.22
2018-04-04T06:49:37.124Z,11.30
2018-04-04T06:50:37.271Z,11.32
2018-04-04T06:51:37.420Z,11.35
2018-04-04T06:52:37.582Z,11.30
2018-04-04T06:53:37.980Z,11.54
2018-04-04T06:54:37.878Z,11.47
2018-04-04T06:55:38.036Z,11.50
2018-04-04T06:56:38.189Z,11.69
2018-04-04T06:57:38.343Z,11.70
2018-04-04T06:58:38.496Z,11.78
2018-04-04T06:59:38.645Z,11.75
2018-04-04T07:00:38.799Z,12.00
2018-04-04T07:01:38.952Z,12.03
2018-04-04T07:02:39.121Z,12.12
2018-04-04T07:03:39.259Z,12.31
2018-04-04T07:04:39.406Z,12.29
2018-04-04T07:05:39.722Z,12.57
2018-04-04T07:06:39.722Z,12.60
2018-04-04T07:07:40.032Z,12.73
2018-04-04T07:08:40.033Z,13.03
2018-04-04T07:09:40.189Z,13.18
2018-04-04T07:10:40.339Z,13.41
2018-04-04T07:11:40.493Z,13.41
2018-04-04T07:12:40.646Z,13.52
2018-04-04T07:13:40.805Z,13.63
2018-04-04T07:14:40.959Z,13.78
2018-04-04T07:15:41.109Z,13.81
2018-04-04T07:16:41.271Z,13.85
2018-04-04T07:17:41.423Z,14.48
2018-04-04T07:18:41.577Z,15.25
2018-04-04T07:19:41.738Z,15.68
2018-04-04T07:20:41.874Z,16.20
2018-04-04T07:21:42.038Z,16.51
2018-04-04T07:22:42.192Z,17.04
2018-04-04T07:23:42.387Z,17.05
2018-04-04T07:24:42.500Z,17.26
2018-04-04T07:25:42.653Z,17.56
2018-04-04T07:26:42.808Z,17.78
2018-04-04T07:27:42.961Z,17.90
2018-04-04T07:28:43.116Z,18.04
2018-04-04T07:29:43.280Z,18.23
2018-04-04T07:30:43.450Z,18.31
2018-04-04T07:31:43.592Z,18.34
2018-04-04T07:32:43.759Z,18.25
2018-04-04T07:34:44.058Z,18.29
2018-04-04T07:35:44.212Z,18.55
2018-04-04T07:36:44.374Z,18.49
2018-04-04T07:37:44.542Z,18.34
2018-04-04T07:38:44.683Z,18.04
2018-04-04T07:39:44.844Z,18.29
2018-04-04T07:40:45.003Z,18.28
2018-04-04T07:41:45.161Z,17.98
2018-04-04T07:42:45.320Z,17.68
2018-04-04T07:43:45.478Z,17.45
2018-04-04T07:44:45.661Z,17.14
2018-04-04T07:45:45.791Z,16.79
2018-04-04T07:46:45.951Z,16.68
2018-04-04T07:47:46.105Z,16.24
2018-04-04T07:48:46.318Z,16.04
2018-04-04T07:49:46.443Z,15.82
2018-04-04T07:50:46.587Z,15.82
2018-04-04T07:51:46.750Z,15.55
2018-04-04T07:52:46.917Z,15.39
2018-04-04T07:53:47.069Z,15.27
2018-04-04T07:54:47.230Z,14.69
2018-04-04T07:55:47.392Z,14.29
2018-04-04T07:56:47.537Z,13.90
2018-04-04T07:57:47.697Z,13.79
2018-04-04T07:58:47.850Z,13.60
2018-04-04T07:59:48.058Z,13.56
2018-04-04T08:00:48.165Z,13.44
2018-04-04T08:01:48.319Z,13.50
2018-04-04T08:02:48.479Z,13.62
2018-04-04T08:03:48.845Z,13.62
2018-04-04T08:04:48.788Z,13.65
2018-04-04T08:05:48.950Z,13.50
2018-04-04T08:06:49.102Z,13.52
2018-04-04T08:07:49.253Z,14.12
2018-04-04T08:08:49.408Z,14.25
2018-04-04T08:09:49.568Z,14.30
2018-04-04T08:10:49.727Z,14.41
2018-04-04T08:11:50.139Z,15.28
2018-04-04T08:12:50.047Z,15.67
2018-04-04T08:13:50.203Z,16.58
2018-04-04T08:14:50.361Z,17.19
2018-04-04T08:15:50.512Z,17.51
2018-04-04T08:16:50.664Z,18.13
2018-04-04T08:17:50.822Z,18.77
2018-04-04T08:18:50.975Z,19.24
2018-04-04T08:19:51.155Z,19.31
2018-04-04T08:20:51.294Z,19.39
2018-04-04T08:21:51.448Z,19.71
2018-04-04T08:22:51.606Z,19.95
2018-04-04T08:23:51.774Z,20.43
2018-04-04T08:24:51.915Z,20.62
2018-04-04T08:25:52.081Z,21.11
2018-04-04T08:26:52.235Z,21.51
2018-04-04T08:27:52.412Z,21.64
2018-04-04T08:28:52.545Z,22.06
2018-04-04T08:29:52.704Z,22.10
2018-04-04T08:30:52.862Z,22.28
2018-04-04T08:31:53.023Z,22.62
2018-04-04T08:32:53.181Z,22.60
2018-04-04T08:33:53.348Z,22.07
2018-04-04T08:34:53.498Z,21.58
2018-04-04T08:35:53.659Z,21.15
2018-04-04T08:36:53.828Z,21.48
2018-04-04T08:37:53.980Z,21.58
2018-04-04T08:38:54.137Z,22.00
2018-04-04T08:39:54.299Z,21.50
2018-04-04T08:40:54.465Z,21.60
2018-04-04T08:41:54.620Z,21.58
2018-04-04T08:42:54.778Z,21.66
2018-04-04T08:43:54.958Z,22.17
2018-04-04T08:44:55.108Z,22.15
2018-04-04T08:49:14.246Z,21.42
2018-04-04T08:50:14.406Z,21.43
2018-04-04T08:51:14.569Z,21.54
2018-04-04T08:52:14.730Z,21.72
2018-04-04T08:53:14.864Z,21.91
2018-04-04T08:54:15.015Z,22.06
2018-04-04T09:06:46.288Z,22.60
2018-04-04T09:07:46.444Z,22.48
2018-04-04T09:08:46.598Z,22.59
2018-04-04T09:25:29.569Z,17.34
2018-04-04T09:26:29.718Z,17.36
2018-04-04T09:27:29.873Z,17.45
2018-04-04T09:28:30.039Z,17.56
2018-04-04T09:29:30.194Z,17.52
2018-04-04T09:30:30.362Z,17.52
2018-04-04T09:31:30.525Z,17.52
2018-04-04T09:32:30.690Z,17.51
2018-04-04T09:33:30.857Z,17.30
2018-04-04T09:34:31.804Z,17.01
2018-04-04T09:37:14.509Z,16.83
2018-04-04T09:38:14.680Z,16.89
2018-04-04T09:39:15.224Z,16.75
2018-04-04T09:40:15.325Z,16.65
2018-04-04T09:41:22.496Z,16.42
2018-04-04T09:42:15.877Z,16.33
2018-04-04T09:43:15.526Z,16.36
2018-04-04T09:44:15.700Z,16.41
2018-04-04T09:45:15.958Z,16.50
2018-04-04T09:46:16.185Z,16.54
2018-04-04T09:47:16.317Z,16.53
2018-04-04T09:48:27.557Z,16.78
2018-04-04T09:49:16.662Z,16.66
2018-04-04T09:50:16.958Z,16.71
2018-04-04T09:51:18.822Z,16.89
2018-04-04T09:52:17.087Z,16.87
2018-04-04T09:53:24.417Z,16.91
2018-04-04T09:54:17.457Z,16.83
2018-04-04T09:55:17.625Z,16.75
2018-04-04T09:56:17.788Z,16.65
2018-04-04T09:57:17.959Z,16.74
2018-04-04T09:58:18.119Z,16.89
2018-04-04T09:59:18.293Z,16.90
2018-04-04T10:00:18.459Z,16.91
2018-04-04T10:01:18.630Z,16.97
2018-04-04T10:02:18.854Z,16.94
2018-04-04T10:03:18.960Z,16.79
2018-04-04T10:06:01.236Z,16.78
2018-04-04T10:07:01.403Z,16.78
2018-04-04T10:08:01.575Z,16.89
2018-04-04T10:09:01.740Z,16.99
2018-04-04T10:10:01.903Z,17.16
2018-04-04T10:11:02.068Z,17.31
2018-04-04T10:12:02.242Z,17.36
2018-04-04T10:13:02.427Z,17.44
2018-04-04T10:14:02.591Z,17.57
2018-04-04T10:15:02.760Z,17.51
2018-04-04T10:16:03.767Z,17.48
2018-04-04T10:17:03.066Z,17.56
2018-04-04T10:18:03.218Z,17.78
2018-04-04T10:19:03.399Z,17.74
2018-04-04T10:20:03.570Z,18.25
2018-04-04T10:22:45.849Z,18.90
2018-04-04T10:23:46.003Z,18.86
2018-04-04T10:24:46.173Z,19.16
2018-04-04T10:25:46.333Z,19.21
2018-04-04T10:26:46.500Z,19.36
2018-04-04T10:27:46.671Z,19.55
2018-04-04T10:28:46.903Z,19.19
2018-04-04T10:29:47.009Z,19.55
2018-04-04T10:30:47.181Z,19.33
2018-04-04T10:31:47.371Z,19.12
2018-04-04T10:32:47.515Z,19.37
2018-04-04T10:33:47.703Z,19.56
2018-04-04T10:34:47.831Z,19.41
2018-04-04T10:35:48.041Z,19.09
2018-04-04T10:36:48.223Z,18.88
2018-04-04T10:39:20.503Z,18.71
2018-04-04T10:40:20.674Z,19.07
2018-04-04T10:41:20.918Z,19.31
2018-04-04T10:42:20.960Z,19.62
2018-04-04T10:43:21.129Z,19.58
2018-04-04T10:44:21.335Z,19.44
2018-04-04T10:45:21.496Z,19.29
2018-04-04T10:46:21.664Z,19.52
2018-04-04T10:47:21.841Z,19.59
2018-04-04T10:48:22.006Z,19.67
2018-04-04T10:49:22.182Z,19.71
2018-04-04T10:50:22.364Z,19.63
2018-04-04T10:51:22.539Z,19.52
2018-04-04T10:52:22.729Z,19.56
2018-04-04T10:53:22.941Z,19.58
2018-04-04T10:56:05.238Z,19.09
2018-04-04T10:57:05.402Z,18.96
2018-04-04T10:58:05.650Z,18.81
2018-04-04T10:59:05.784Z,18.77
2018-04-04T11:00:05.957Z,18.63
2018-04-04T11:01:06.174Z,18.59
2018-04-04T11:02:06.340Z,18.56
2018-04-04T11:03:06.511Z,18.37
2018-04-04T11:04:06.683Z,18.11
2018-04-04T11:05:06.890Z,18.16
2018-04-04T11:06:07.050Z,18.08
2018-04-04T11:07:07.268Z,18.15
2018-04-04T11:08:07.388Z,18.18
2018-04-04T11:09:07.555Z,18.13
2018-04-04T11:10:07.745Z,18.08
2018-04-04T11:12:50.381Z,18.15
2018-04-04T11:13:50.620Z,18.29
2018-04-04T11:14:50.703Z,18.40
2018-04-04T11:15:50.943Z,18.45
2018-04-04T11:16:51.099Z,18.59
2018-04-04T11:17:51.297Z,18.45
2018-04-04T11:18:51.456Z,18.35
2018-04-04T11:19:51.627Z,18.26
2018-04-04T11:20:51.792Z,18.16
2018-04-04T11:21:51.967Z,18.11
2018-04-04T11:22:52.136Z,18.03
2018-04-04T11:23:52.294Z,18.10
2018-04-04T11:24:52.449Z,17.98
2018-04-04T11:26:04.677Z,18.11
2018-04-04T11:26:52.931Z,18.33
2018-04-04T11:27:54.996Z,18.45
2018-04-04T11:28:53.706Z,18.66
2018-04-04T11:29:53.329Z,18.62
2018-04-04T11:30:53.489Z,18.77
2018-04-04T11:31:53.697Z,19.00
2018-04-04T11:33:00.783Z,19.14
2018-04-04T11:33:55.625Z,19.27
2018-04-04T11:34:55.309Z,19.44
2018-04-04T11:35:54.393Z,19.37
2018-04-04T11:37:02.603Z,19.66
2018-04-04T11:37:57.623Z,19.33
2018-04-04T11:38:54.874Z,19.37
2018-04-04T11:40:02.738Z,19.41
2018-04-04T11:40:55.148Z,19.51
2018-04-04T11:41:55.318Z,19.56
2018-04-04T11:42:55.488Z,19.47
2018-04-04T11:43:55.671Z,19.29
2018-04-04T11:44:55.830Z,19.31
2018-04-04T11:45:55.996Z,19.63
2018-04-04T11:46:56.171Z,19.51
2018-04-04T11:47:56.342Z,19.52
2018-04-04T11:48:56.516Z,19.69
2018-04-04T11:49:56.687Z,19.71
2018-04-04T11:50:56.877Z,19.92
2018-04-04T11:51:57.014Z,20.02
2018-04-04T11:52:57.182Z,20.02
2018-04-04T11:53:57.349Z,19.99
2018-04-04T11:56:39.926Z,19.70
2018-04-04T11:57:40.098Z,19.31
2018-04-04T11:58:40.268Z,19.39
2018-04-04T11:59:40.420Z,19.44
2018-04-04T12:00:40.593Z,19.47
2018-04-04T12:01:40.761Z,19.48
2018-04-04T12:02:43.652Z,19.71
2018-04-04T12:03:41.066Z,19.71
2018-04-04T12:04:41.232Z,19.88
2018-04-04T12:05:41.476Z,19.95
2018-04-04T12:06:41.576Z,20.09
2018-04-04T12:09:13.937Z,20.25
2018-04-04T12:10:14.045Z,20.07
2018-04-04T12:11:14.217Z,20.06
2018-04-04T12:12:14.387Z,19.86
2018-04-04T12:13:14.551Z,20.07
2018-04-04T12:14:14.769Z,20.16
2018-04-04T12:15:15.018Z,20.28
2018-04-04T12:16:25.139Z,20.40
2018-04-04T12:17:15.355Z,20.40
2018-04-04T12:18:15.522Z,20.56
2018-04-04T12:19:15.683Z,20.62
2018-04-04T12:20:15.845Z,20.63
2018-04-04T12:21:16.016Z,20.82
2018-04-04T12:22:16.182Z,20.95
2018-04-04T12:23:16.355Z,20.96
2018-04-04T12:24:16.619Z,20.96
2018-04-04T12:25:16.749Z,20.85
2018-04-04T12:26:16.907Z,20.84
2018-04-04T12:28:59.496Z,20.97
2018-04-04T12:29:59.679Z,20.60
2018-04-04T12:30:59.838Z,20.58
2018-04-04T12:32:00.008Z,20.59
2018-04-04T12:33:00.182Z,20.78
2018-04-04T12:34:00.385Z,20.87
2018-04-04T12:35:00.523Z,20.99
2018-04-04T12:36:00.692Z,20.92
2018-04-04T12:37:00.879Z,20.81
2018-04-04T12:38:01.054Z,20.69
2018-04-04T12:39:01.223Z,20.59
2018-04-04T12:40:01.398Z,20.59
2018-04-04T12:41:01.563Z,20.66
2018-04-04T12:42:01.751Z,20.58
2018-04-04T12:43:01.915Z,20.60
2018-04-04T12:45:44.903Z,20.66
2018-04-04T12:46:44.683Z,20.62
2018-04-04T12:47:44.897Z,20.62
2018-04-04T12:48:45.018Z,20.60
2018-04-04T12:49:45.188Z,20.58
2018-04-04T12:50:45.937Z,20.84
2018-04-04T12:51:46.573Z,20.88
2018-04-04T12:52:45.692Z,20.95
2018-04-04T12:53:45.865Z,21.20
2018-04-04T12:54:46.022Z,21.21
2018-04-04T12:55:46.210Z,21.32
2018-04-04T12:56:46.449Z,21.43
2018-04-04T12:57:49.527Z,21.43
2018-04-04T12:58:46.661Z,21.46
2018-04-04T12:59:46.894Z,21.60
2018-04-04T13:02:19.962Z,21.60
2018-04-04T13:03:19.742Z,21.76
2018-04-04T13:04:19.751Z,21.83
2018-04-04T13:06:52.372Z,21.77
2018-04-04T13:07:52.554Z,21.82
2018-04-04T13:08:52.731Z,21.82
2018-04-04T13:09:52.892Z,21.77
2018-04-04T13:10:53.080Z,21.76
2018-04-04T13:11:53.262Z,21.67
2018-04-04T13:12:53.461Z,21.62
2018-04-04T13:13:53.607Z,21.61
2018-04-04T13:15:02.748Z,21.60
2018-04-04T13:15:53.906Z,21.52
2018-04-04T13:16:54.073Z,21.45
2018-04-04T13:17:55.094Z,21.45
2018-04-04T13:18:55.079Z,21.32
2018-04-04T13:19:54.505Z,21.42
2018-04-04T13:20:54.685Z,21.32
2018-04-04T13:21:54.858Z,21.21
2018-04-04T13:22:55.035Z,21.14
2018-04-04T13:23:55.197Z,21.09
2018-04-04T13:24:55.357Z,21.12
2018-04-04T13:27:27.959Z,21.21
2018-04-04T13:28:28.131Z,21.30
2018-04-04T13:29:28.300Z,21.32
2018-04-04T13:30:28.472Z,21.46
2018-04-04T13:31:28.646Z,21.33
2018-04-04T13:32:28.815Z,21.42
2018-04-04T13:33:28.993Z,21.45
2018-04-04T13:34:29.155Z,21.45
2018-04-04T13:35:30.182Z,21.58
2018-04-04T13:36:29.480Z,21.55
2018-04-04T13:37:29.649Z,21.51
2018-04-04T13:38:29.819Z,21.51
2018-04-04T13:39:29.985Z,21.42
2018-04-04T13:40:30.162Z,21.42
2018-04-04T13:41:30.353Z,21.46
2018-04-04T13:44:13.893Z,21.20
2018-04-04T13:45:14.061Z,21.21
2018-04-04T13:46:14.236Z,21.24
2018-04-04T13:47:14.409Z,21.27
2018-04-04T13:48:14.570Z,21.36
2018-04-04T13:49:14.763Z,21.46
2018-04-04T13:50:14.942Z,21.42
2018-04-04T13:51:15.100Z,21.46
2018-04-04T13:52:15.268Z,21.37
2018-04-04T13:53:15.438Z,21.45
2018-04-04T13:54:15.609Z,21.40
2018-04-04T13:55:15.779Z,21.43
2018-04-04T13:56:15.951Z,21.15
2018-04-04T13:57:16.140Z,20.93
2018-04-04T13:58:16.296Z,20.90
2018-04-04T14:00:58.586Z,20.78
2018-04-04T14:01:58.749Z,20.60
2018-04-04T14:02:58.915Z,20.62
2018-04-04T14:03:59.136Z,20.43
2018-04-04T14:04:59.275Z,20.32